Reno, Illinois
Current Conditions -  °F | °C
As of 11:55 AM on Sunday 21 Dec 2014 (Local Time) from K3LF Reporting Station
Overcast Overcast  
Wind Chill: 28°   Ceiling: 2100
Heat Index: 36°   Visibility: 10mi
Dew Point: 29°   Wind: 10mph
Humidity: 78%   Direction: 150°SSE
Pressure: 30.16"   Gusts: NA
Location:  38.9523°N, 89.5609°W
Report Text: K3LF 211755Z AUTO 15009KT 10SM OVC021 02/M01 A3016 RMK AO2 T00201015 10021 20013
Loading
Personal Weather Stations






























Interactive Weather Map New forecast layout! Learn more

10-Day Weather Forecast

Advertisements
Track Severe Weather on mobile